sensor_id;sensor_type;location;lat;lon;timestamp;P1;durP1;ratioP1;P2;durP2;ratioP2
50249;SDS011;36133;42.522;27.456;2022-09-03T00:01:49;13.63;;;3.20;;
50249;SDS011;36133;42.522;27.456;2022-09-03T00:04:36;14.02;;;3.85;;
50249;SDS011;36133;42.522;27.456;2022-09-03T00:07:14;13.30;;;3.67;;
50249;SDS011;36133;42.522;27.456;2022-09-03T00:09:54;11.40;;;3.47;;
50249;SDS011;36133;42.522;27.456;2022-09-03T00:12:28;12.80;;;3.63;;
50249;SDS011;36133;42.522;27.456;2022-09-03T00:17:52;11.80;;;3.33;;
50249;SDS011;36133;42.522;27.456;2022-09-03T00:20:32;10.82;;;3.30;;
50249;SDS011;36133;42.522;27.456;2022-09-03T00:23:04;8.88;;;3.58;;
50249;SDS011;36133;42.522;27.456;2022-09-03T00:25:41;10.15;;;3.40;;
50249;SDS011;36133;42.522;27.456;2022-09-03T00:28:25;10.77;;;3.20;;
50249;SDS011;36133;42.522;27.456;2022-09-03T00:31:16;13.43;;;3.55;;
50249;SDS011;36133;42.522;27.456;2022-09-03T00:34:02;7.50;;;3.30;;
50249;SDS011;36133;42.522;27.456;2022-09-03T00:36:37;5.47;;;3.40;;
50249;SDS011;36133;42.522;27.456;2022-09-03T00:39:10;7.43;;;3.87;;
50249;SDS011;36133;42.522;27.456;2022-09-03T00:59:10;12.48;;;4.88;;
50249;SDS011;36133;42.522;27.456;2022-09-03T01:01:57;21.08;;;14.52;;
50249;SDS011;36133;42.522;27.456;2022-09-03T01:13:23;11.77;;;4.90;;
50249;SDS011;36133;42.522;27.456;2022-09-03T01:16:25;12.13;;;6.20;;
50249;SDS011;36133;42.522;27.456;2022-09-03T01:27:42;22.70;;;9.95;;
50249;SDS011;36133;42.522;27.456;2022-09-03T01:30:17;23.10;;;11.27;;
50249;SDS011;36133;42.522;27.456;2022-09-03T01:41:05;23.88;;;10.60;;
50249;SDS011;36133;42.522;27.456;2022-09-03T01:46:43;20.90;;;10.32;;
50249;SDS011;36133;42.522;27.456;2022-09-03T01:51:49;16.90;;;9.43;;
50249;SDS011;36133;42.522;27.456;2022-09-03T01:59:51;16.48;;;9.10;;
50249;SDS011;36133;42.522;27.456;2022-09-03T02:02:24;19.27;;;7.75;;
50249;SDS011;36133;42.522;27.456;2022-09-03T02:04:59;12.10;;;7.60;;
50249;SDS011;36133;42.522;27.456;2022-09-03T02:07:37;14.10;;;7.15;;
50249;SDS011;36133;42.522;27.456;2022-09-03T02:10:05;11.07;;;6.30;;
50249;SDS011;36133;42.522;27.456;2022-09-03T02:12:37;15.02;;;7.45;;
50249;SDS011;36133;42.522;27.456;2022-09-03T02:15:06;16.25;;;8.02;;
50249;SDS011;36133;42.522;27.456;2022-09-03T02:17:36;16.38;;;7.22;;
50249;SDS011;36133;42.522;27.456;2022-09-03T02:20:04;12.23;;;7.38;;
50249;SDS011;36133;42.522;27.456;2022-09-03T02:22:35;17.45;;;8.02;;
50249;SDS011;36133;42.522;27.456;2022-09-03T02:25:03;14.27;;;8.07;;
50249;SDS011;36133;42.522;27.456;2022-09-03T02:27:29;13.52;;;7.47;;
50249;SDS011;36133;42.522;27.456;2022-09-03T02:29:57;17.30;;;8.45;;
50249;SDS011;36133;42.522;27.456;2022-09-03T02:32:24;15.32;;;8.82;;
50249;SDS011;36133;42.522;27.456;2022-09-03T02:34:50;16.65;;;9.02;;
50249;SDS011;36133;42.522;27.456;2022-09-03T02:37:17;15.45;;;9.55;;
50249;SDS011;36133;42.522;27.456;2022-09-03T02:39:43;17.08;;;10.30;;
50249;SDS011;36133;42.522;27.456;2022-09-03T02:42:10;20.23;;;10.30;;
50249;SDS011;36133;42.522;27.456;2022-09-03T02:44:40;16.00;;;10.60;;
50249;SDS011;36133;42.522;27.456;2022-09-03T02:47:11;22.60;;;11.40;;
50249;SDS011;36133;42.522;27.456;2022-09-03T02:49:37;21.58;;;11.57;;
50249;SDS011;36133;42.522;27.456;2022-09-03T02:52:04;21.70;;;12.45;;
50249;SDS011;36133;42.522;27.456;2022-09-03T02:54:36;21.98;;;13.68;;
50249;SDS011;36133;42.522;27.456;2022-09-03T02:57:11;24.15;;;13.63;;
50249;SDS011;36133;42.522;27.456;2022-09-03T02:59:38;22.50;;;13.50;;
50249;SDS011;36133;42.522;27.456;2022-09-03T03:02:05;22.80;;;12.82;;
50249;SDS011;36133;42.522;27.456;2022-09-03T03:04:31;25.10;;;13.20;;
50249;SDS011;36133;42.522;27.456;2022-09-03T03:06:57;21.67;;;12.50;;
50249;SDS011;36133;42.522;27.456;2022-09-03T03:09:23;26.13;;;13.90;;
50249;SDS011;36133;42.522;27.456;2022-09-03T03:11:49;25.45;;;13.05;;
50249;SDS011;36133;42.522;27.456;2022-09-03T03:14:15;19.80;;;12.05;;
50249;SDS011;36133;42.522;27.456;2022-09-03T03:16:42;20.05;;;12.93;;
50249;SDS011;36133;42.522;27.456;2022-09-03T03:19:08;21.83;;;13.23;;
50249;SDS011;36133;42.522;27.456;2022-09-03T03:21:33;18.60;;;12.60;;
50249;SDS011;36133;42.522;27.456;2022-09-03T03:24:00;23.30;;;12.45;;
50249;SDS011;36133;42.522;27.456;2022-09-03T03:26:26;21.75;;;11.88;;
50249;SDS011;36133;42.522;27.456;2022-09-03T03:28:55;18.10;;;11.77;;
50249;SDS011;36133;42.522;27.456;2022-09-03T03:31:21;21.05;;;11.77;;
50249;SDS011;36133;42.522;27.456;2022-09-03T03:33:51;20.65;;;13.93;;
50249;SDS011;36133;42.522;27.456;2022-09-03T03:36:22;18.83;;;13.43;;
50249;SDS011;36133;42.522;27.456;2022-09-03T03:38:51;23.52;;;14.23;;
50249;SDS011;36133;42.522;27.456;2022-09-03T03:41:20;23.83;;;14.13;;
50249;SDS011;36133;42.522;27.456;2022-09-03T03:43:51;30.38;;;15.68;;
50249;SDS011;36133;42.522;27.456;2022-09-03T03:46:21;30.38;;;15.85;;
50249;SDS011;36133;42.522;27.456;2022-09-03T03:48:49;26.30;;;17.15;;
50249;SDS011;36133;42.522;27.456;2022-09-03T03:51:15;23.23;;;14.95;;
50249;SDS011;36133;42.522;27.456;2022-09-03T03:53:41;33.28;;;15.45;;
50249;SDS011;36133;42.522;27.456;2022-09-03T03:56:08;33.35;;;14.32;;
50249;SDS011;36133;42.522;27.456;2022-09-03T03:58:35;29.48;;;15.43;;
50249;SDS011;36133;42.522;27.456;2022-09-03T04:01:09;26.50;;;15.13;;
50249;SDS011;36133;42.522;27.456;2022-09-03T04:03:39;22.60;;;15.18;;
50249;SDS011;36133;42.522;27.456;2022-09-03T04:06:05;31.08;;;16.85;;
50249;SDS011;36133;42.522;27.456;2022-09-03T04:08:35;30.90;;;16.17;;
50249;SDS011;36133;42.522;27.456;2022-09-03T04:11:03;26.52;;;15.90;;
50249;SDS011;36133;42.522;27.456;2022-09-03T04:13:31;23.83;;;16.48;;
50249;SDS011;36133;42.522;27.456;2022-09-03T04:18:27;22.50;;;14.88;;
50249;SDS011;36133;42.522;27.456;2022-09-03T04:20:57;23.00;;;15.52;;
50249;SDS011;36133;42.522;27.456;2022-09-03T04:23:23;22.48;;;14.77;;
50249;SDS011;36133;42.522;27.456;2022-09-03T04:25:52;19.52;;;13.88;;
50249;SDS011;36133;42.522;27.456;2022-09-03T04:28:18;22.80;;;13.43;;
50249;SDS011;36133;42.522;27.456;2022-09-03T04:30:43;24.75;;;14.45;;
50249;SDS011;36133;42.522;27.456;2022-09-03T04:33:09;18.30;;;12.80;;
50249;SDS011;36133;42.522;27.456;2022-09-03T04:35:34;22.88;;;13.07;;
50249;SDS011;36133;42.522;27.456;2022-09-03T04:38:00;20.13;;;12.65;;
50249;SDS011;36133;42.522;27.456;2022-09-03T04:40:25;19.98;;;11.35;;
50249;SDS011;36133;42.522;27.456;2022-09-03T04:42:55;16.55;;;11.02;;
50249;SDS011;36133;42.522;27.456;2022-09-03T04:45:21;19.80;;;11.18;;
50249;SDS011;36133;42.522;27.456;2022-09-03T04:48:00;19.63;;;11.70;;
50249;SDS011;36133;42.522;27.456;2022-09-03T04:50:27;18.45;;;11.48;;
50249;SDS011;36133;42.522;27.456;2022-09-03T04:52:54;18.13;;;11.98;;
50249;SDS011;36133;42.522;27.456;2022-09-03T04:55:24;21.20;;;11.40;;
50249;SDS011;36133;42.522;27.456;2022-09-03T04:57:49;19.70;;;11.45;;
50249;SDS011;36133;42.522;27.456;2022-09-03T05:00:15;19.48;;;11.35;;
50249;SDS011;36133;42.522;27.456;2022-09-03T05:02:42;17.90;;;10.73;;
50249;SDS011;36133;42.522;27.456;2022-09-03T05:05:11;15.85;;;9.55;;
50249;SDS011;36133;42.522;27.456;2022-09-03T05:07:37;18.70;;;9.63;;
50249;SDS011;36133;42.522;27.456;2022-09-03T05:10:04;21.55;;;9.35;;
50249;SDS011;36133;42.522;27.456;2022-09-03T05:12:31;13.65;;;8.05;;
50249;SDS011;36133;42.522;27.456;2022-09-03T05:14:57;13.30;;;7.55;;
50249;SDS011;36133;42.522;27.456;2022-09-03T05:17:23;12.55;;;7.95;;
50249;SDS011;36133;42.522;27.456;2022-09-03T05:19:49;9.18;;;6.57;;
50249;SDS011;36133;42.522;27.456;2022-09-03T05:22:15;9.07;;;6.28;;
50249;SDS011;36133;42.522;27.456;2022-09-03T05:24:45;7.07;;;5.43;;
50249;SDS011;36133;42.522;27.456;2022-09-03T05:27:12;8.57;;;5.10;;
50249;SDS011;36133;42.522;27.456;2022-09-03T05:29:44;9.00;;;4.93;;
50249;SDS011;36133;42.522;27.456;2022-09-03T05:32:10;5.35;;;3.75;;
50249;SDS011;36133;42.522;27.456;2022-09-03T05:34:41;4.78;;;3.78;;
50249;SDS011;36133;42.522;27.456;2022-09-03T05:37:07;5.50;;;3.40;;
50249;SDS011;36133;42.522;27.456;2022-09-03T05:39:33;6.65;;;4.20;;
50249;SDS011;36133;42.522;27.456;2022-09-03T05:41:58;4.05;;;3.20;;
50249;SDS011;36133;42.522;27.456;2022-09-03T05:44:24;5.45;;;3.10;;
50249;SDS011;36133;42.522;27.456;2022-09-03T05:46:49;5.93;;;3.25;;
50249;SDS011;36133;42.522;27.456;2022-09-03T05:49:15;6.55;;;3.08;;
50249;SDS011;36133;42.522;27.456;2022-09-03T05:51:41;4.25;;;2.75;;
50249;SDS011;36133;42.522;27.456;2022-09-03T05:54:08;3.28;;;2.70;;
50249;SDS011;36133;42.522;27.456;2022-09-03T05:56:35;3.90;;;2.95;;
50249;SDS011;36133;42.522;27.456;2022-09-03T05:59:04;2.92;;;2.40;;
50249;SDS011;36133;42.522;27.456;2022-09-03T06:01:32;5.18;;;3.10;;
50249;SDS011;36133;42.522;27.456;2022-09-03T06:04:03;2.35;;;2.10;;
50249;SDS011;36133;42.522;27.456;2022-09-03T06:06:34;3.47;;;2.60;;
50249;SDS011;36133;42.522;27.456;2022-09-03T06:09:02;3.05;;;2.35;;
50249;SDS011;36133;42.522;27.456;2022-09-03T06:11:30;4.25;;;2.95;;
50249;SDS011;36133;42.522;27.456;2022-09-03T06:13:59;3.55;;;2.25;;
50249;SDS011;36133;42.522;27.456;2022-09-03T06:16:29;3.03;;;2.72;;
50249;SDS011;36133;42.522;27.456;2022-09-03T06:18:58;5.47;;;2.88;;
50249;SDS011;36133;42.522;27.456;2022-09-03T06:23:56;3.95;;;2.45;;
50249;SDS011;36133;42.522;27.456;2022-09-03T06:26:23;5.78;;;2.58;;
50249;SDS011;36133;42.522;27.456;2022-09-03T06:28:49;2.75;;;2.20;;
50249;SDS011;36133;42.522;27.456;2022-09-03T06:31:16;3.03;;;1.95;;
50249;SDS011;36133;42.522;27.456;2022-09-03T06:33:43;3.13;;;2.60;;
50249;SDS011;36133;42.522;27.456;2022-09-03T06:36:14;2.97;;;2.53;;
50249;SDS011;36133;42.522;27.456;2022-09-03T06:38:41;7.00;;;2.80;;
50249;SDS011;36133;42.522;27.456;2022-09-03T06:41:09;3.50;;;2.42;;
50249;SDS011;36133;42.522;27.456;2022-09-03T06:43:37;5.50;;;2.40;;
50249;SDS011;36133;42.522;27.456;2022-09-03T06:46:10;3.03;;;2.33;;
50249;SDS011;36133;42.522;27.456;2022-09-03T06:48:38;3.72;;;2.38;;
50249;SDS011;36133;42.522;27.456;2022-09-03T06:51:09;4.68;;;2.72;;
50249;SDS011;36133;42.522;27.456;2022-09-03T06:53:40;2.90;;;2.28;;
50249;SDS011;36133;42.522;27.456;2022-09-03T06:56:08;3.10;;;1.83;;
50249;SDS011;36133;42.522;27.456;2022-09-03T06:58:38;6.22;;;2.83;;
50249;SDS011;36133;42.522;27.456;2022-09-03T07:01:12;3.88;;;2.47;;
50249;SDS011;36133;42.522;27.456;2022-09-03T07:03:41;2.83;;;2.10;;
50249;SDS011;36133;42.522;27.456;2022-09-03T07:06:09;2.67;;;2.10;;
50249;SDS011;36133;42.522;27.456;2022-09-03T07:08:36;3.47;;;2.33;;
50249;SDS011;36133;42.522;27.456;2022-09-03T07:11:03;2.70;;;1.92;;
50249;SDS011;36133;42.522;27.456;2022-09-03T07:13:36;5.65;;;2.30;;
50249;SDS011;36133;42.522;27.456;2022-09-03T07:16:12;3.72;;;2.08;;
50249;SDS011;36133;42.522;27.456;2022-09-03T07:18:39;2.60;;;1.77;;
50249;SDS011;36133;42.522;27.456;2022-09-03T07:21:08;4.38;;;1.92;;
50249;SDS011;36133;42.522;27.456;2022-09-03T07:23:36;3.63;;;2.08;;
50249;SDS011;36133;42.522;27.456;2022-09-03T07:26:06;2.60;;;1.92;;
50249;SDS011;36133;42.522;27.456;2022-09-03T07:28:36;2.40;;;1.90;;
50249;SDS011;36133;42.522;27.456;2022-09-03T07:31:07;4.13;;;2.17;;
50249;SDS011;36133;42.522;27.456;2022-09-03T07:33:36;2.90;;;1.65;;
50249;SDS011;36133;42.522;27.456;2022-09-03T07:36:03;2.42;;;1.40;;
50249;SDS011;36133;42.522;27.456;2022-09-03T07:38:34;3.00;;;1.77;;
50249;SDS011;36133;42.522;27.456;2022-09-03T07:41:01;2.47;;;1.63;;
50249;SDS011;36133;42.522;27.456;2022-09-03T07:43:32;4.18;;;1.50;;
50249;SDS011;36133;42.522;27.456;2022-09-03T07:46:07;1.65;;;1.27;;
50249;SDS011;36133;42.522;27.456;2022-09-03T07:48:48;1.60;;;1.30;;
50249;SDS011;36133;42.522;27.456;2022-09-03T07:51:18;1.70;;;1.40;;
50249;SDS011;36133;42.522;27.456;2022-09-03T07:53:45;4.57;;;1.65;;
50249;SDS011;36133;42.522;27.456;2022-09-03T07:56:12;1.40;;;1.30;;
50249;SDS011;36133;42.522;27.456;2022-09-03T07:58:38;1.98;;;1.45;;
50249;SDS011;36133;42.522;27.456;2022-09-03T08:03:37;2.03;;;0.95;;
50249;SDS011;36133;42.522;27.456;2022-09-03T08:06:14;3.45;;;1.50;;
50249;SDS011;36133;42.522;27.456;2022-09-03T08:08:42;3.85;;;1.20;;
50249;SDS011;36133;42.522;27.456;2022-09-03T08:11:13;2.03;;;1.63;;
50249;SDS011;36133;42.522;27.456;2022-09-03T08:16:20;3.10;;;1.20;;
50249;SDS011;36133;42.522;27.456;2022-09-03T08:18:46;1.30;;;1.20;;
50249;SDS011;36133;42.522;27.456;2022-09-03T08:21:15;2.47;;;1.13;;
50249;SDS011;36133;42.522;27.456;2022-09-03T08:23:43;2.97;;;1.30;;
50249;SDS011;36133;42.522;27.456;2022-09-03T08:26:10;2.67;;;1.23;;
50249;SDS011;36133;42.522;27.456;2022-09-03T08:28:36;1.20;;;1.10;;
50249;SDS011;36133;42.522;27.456;2022-09-03T08:33:36;2.55;;;1.05;;
50249;SDS011;36133;42.522;27.456;2022-09-03T08:36:09;3.08;;;1.50;;
50249;SDS011;36133;42.522;27.456;2022-09-03T08:38:39;3.80;;;1.35;;
50249;SDS011;36133;42.522;27.456;2022-09-03T08:41:11;1.83;;;1.20;;
50249;SDS011;36133;42.522;27.456;2022-09-03T08:43:51;3.50;;;1.30;;
50249;SDS011;36133;42.522;27.456;2022-09-03T08:46:23;1.20;;;1.10;;
50249;SDS011;36133;42.522;27.456;2022-09-03T08:49:08;1.38;;;1.27;;
50249;SDS011;36133;42.522;27.456;2022-09-03T08:51:39;3.80;;;1.42;;
50249;SDS011;36133;42.522;27.456;2022-09-03T08:54:09;1.40;;;1.30;;
50249;SDS011;36133;42.522;27.456;2022-09-03T08:56:38;1.35;;;1.20;;
50249;SDS011;36133;42.522;27.456;2022-09-03T08:59:06;2.60;;;1.30;;
50249;SDS011;36133;42.522;27.456;2022-09-03T09:09:35;1.30;;;1.20;;
50249;SDS011;36133;42.522;27.456;2022-09-03T09:12:39;1.20;;;1.10;;
50249;SDS011;36133;42.522;27.456;2022-09-03T09:23:08;2.15;;;1.40;;
50249;SDS011;36133;42.522;27.456;2022-09-03T09:25:49;3.25;;;1.40;;
50249;SDS011;36133;42.522;27.456;2022-09-03T09:28:20;2.35;;;1.48;;
50249;SDS011;36133;42.522;27.456;2022-09-03T09:30:47;1.80;;;1.30;;
50249;SDS011;36133;42.522;27.456;2022-09-03T09:33:15;2.10;;;1.40;;
50249;SDS011;36133;42.522;27.456;2022-09-03T09:35:42;3.15;;;1.80;;
50249;SDS011;36133;42.522;27.456;2022-09-03T09:38:09;2.88;;;1.70;;
50249;SDS011;36133;42.522;27.456;2022-09-03T09:40:43;1.60;;;1.50;;
50249;SDS011;36133;42.522;27.456;2022-09-03T09:43:16;2.25;;;1.65;;
50249;SDS011;36133;42.522;27.456;2022-09-03T09:45:46;2.38;;;1.60;;
50249;SDS011;36133;42.522;27.456;2022-09-03T09:48:25;1.60;;;1.40;;
50249;SDS011;36133;42.522;27.456;2022-09-03T09:51:11;2.78;;;2.42;;
50249;SDS011;36133;42.522;27.456;2022-09-03T09:53:38;3.55;;;1.75;;
50249;SDS011;36133;42.522;27.456;2022-09-03T09:56:05;2.17;;;1.50;;
50249;SDS011;36133;42.522;27.456;2022-09-03T09:58:37;1.70;;;1.60;;
50249;SDS011;36133;42.522;27.456;2022-09-03T10:01:09;3.13;;;1.90;;
50249;SDS011;36133;42.522;27.456;2022-09-03T10:03:50;3.33;;;1.60;;
50249;SDS011;36133;42.522;27.456;2022-09-03T10:06:24;3.67;;;1.85;;
50249;SDS011;36133;42.522;27.456;2022-09-03T10:09:11;3.35;;;2.00;;
50249;SDS011;36133;42.522;27.456;2022-09-03T10:11:46;2.35;;;1.75;;
50249;SDS011;36133;42.522;27.456;2022-09-03T10:14:27;4.18;;;2.03;;
50249;SDS011;36133;42.522;27.456;2022-09-03T10:28:26;3.67;;;1.60;;
50249;SDS011;36133;42.522;27.456;2022-09-03T10:37:12;2.28;;;1.90;;
50249;SDS011;36133;42.522;27.456;2022-09-03T10:40:20;2.25;;;1.60;;
50249;SDS011;36133;42.522;27.456;2022-09-03T11:01:32;2.25;;;1.80;;
50249;SDS011;36133;42.522;27.456;2022-09-03T11:07:24;2.78;;;1.80;;
50249;SDS011;36133;42.522;27.456;2022-09-03T11:15:47;1.98;;;1.63;;
50249;SDS011;36133;42.522;27.456;2022-09-03T11:21:07;2.47;;;1.92;;
50249;SDS011;36133;42.522;27.456;2022-09-03T11:23:37;2.67;;;2.10;;
50249;SDS011;36133;42.522;27.456;2022-09-03T11:26:07;3.47;;;1.70;;
50249;SDS011;36133;42.522;27.456;2022-09-03T11:28:44;2.20;;;1.90;;
50249;SDS011;36133;42.522;27.456;2022-09-03T11:31:37;3.60;;;1.80;;
50249;SDS011;36133;42.522;27.456;2022-09-03T11:37:18;2.58;;;1.60;;
50249;SDS011;36133;42.522;27.456;2022-09-03T11:39:54;3.03;;;1.70;;
50249;SDS011;36133;42.522;27.456;2022-09-03T11:42:38;1.90;;;1.70;;
50249;SDS011;36133;42.522;27.456;2022-09-03T11:47:56;2.45;;;1.60;;
50249;SDS011;36133;42.522;27.456;2022-09-03T11:50:24;1.40;;;1.30;;
50249;SDS011;36133;42.522;27.456;2022-09-03T11:52:50;3.58;;;2.33;;
50249;SDS011;36133;42.522;27.456;2022-09-03T11:55:25;3.38;;;1.55;;
50249;SDS011;36133;42.522;27.456;2022-09-03T12:00:48;5.20;;;2.10;;
50249;SDS011;36133;42.522;27.456;2022-09-03T12:03:20;2.17;;;1.98;;
50249;SDS011;36133;42.522;27.456;2022-09-03T12:17:54;3.50;;;2.67;;
50249;SDS011;36133;42.522;27.456;2022-09-03T12:21:04;4.63;;;2.00;;
50249;SDS011;36133;42.522;27.456;2022-09-03T12:23:41;2.17;;;1.80;;
50249;SDS011;36133;42.522;27.456;2022-09-03T12:26:11;3.00;;;2.00;;
50249;SDS011;36133;42.522;27.456;2022-09-03T12:28:40;2.70;;;2.00;;
50249;SDS011;36133;42.522;27.456;2022-09-03T12:31:09;1.63;;;1.52;;
50249;SDS011;36133;42.522;27.456;2022-09-03T12:34:10;2.13;;;1.92;;
50249;SDS011;36133;42.522;27.456;2022-09-03T12:36:43;3.30;;;1.98;;
50249;SDS011;36133;42.522;27.456;2022-09-03T12:39:15;1.80;;;1.70;;
50249;SDS011;36133;42.522;27.456;2022-09-03T12:41:56;3.88;;;1.85;;
50249;SDS011;36133;42.522;27.456;2022-09-03T12:44:31;2.20;;;2.00;;
50249;SDS011;36133;42.522;27.456;2022-09-03T12:47:09;2.17;;;1.98;;
50249;SDS011;36133;42.522;27.456;2022-09-03T12:49:37;2.97;;;1.67;;
50249;SDS011;36133;42.522;27.456;2022-09-03T12:52:07;3.25;;;1.92;;
50249;SDS011;36133;42.522;27.456;2022-09-03T12:54:49;2.13;;;1.92;;
50249;SDS011;36133;42.522;27.456;2022-09-03T12:57:24;3.03;;;2.30;;
50249;SDS011;36133;42.522;27.456;2022-09-03T12:59:56;3.78;;;2.20;;
50249;SDS011;36133;42.522;27.456;2022-09-03T13:02:35;3.83;;;2.10;;
50249;SDS011;36133;42.522;27.456;2022-09-03T13:05:15;4.18;;;2.00;;
50249;SDS011;36133;42.522;27.456;2022-09-03T13:07:51;2.30;;;2.10;;
50249;SDS011;36133;42.522;27.456;2022-09-03T13:10:26;5.90;;;2.20;;
50249;SDS011;36133;42.522;27.456;2022-09-03T13:13:02;2.30;;;2.10;;
50249;SDS011;36133;42.522;27.456;2022-09-03T13:19:00;3.55;;;2.30;;
50249;SDS011;36133;42.522;27.456;2022-09-03T13:35:50;2.97;;;2.67;;
50249;SDS011;36133;42.522;27.456;2022-09-03T13:38:44;2.70;;;2.50;;
50249;SDS011;36133;42.522;27.456;2022-09-03T13:41:31;2.67;;;2.45;;
50249;SDS011;36133;42.522;27.456;2022-09-03T13:44:23;3.20;;;2.90;;
50249;SDS011;36133;42.522;27.456;2022-09-03T13:50:28;2.78;;;2.58;;
50249;SDS011;36133;42.522;27.456;2022-09-03T13:53:06;4.00;;;2.55;;
50249;SDS011;36133;42.522;27.456;2022-09-03T13:55:53;2.80;;;2.55;;
50249;SDS011;36133;42.522;27.456;2022-09-03T13:58:40;3.25;;;2.60;;
50249;SDS011;36133;42.522;27.456;2022-09-03T14:04:09;3.60;;;2.33;;
50249;SDS011;36133;42.522;27.456;2022-09-03T14:06:45;2.15;;;1.95;;
50249;SDS011;36133;42.522;27.456;2022-09-03T14:14:57;2.88;;;1.98;;
50249;SDS011;36133;42.522;27.456;2022-09-03T14:20:27;3.78;;;2.40;;
50249;SDS011;36133;42.522;27.456;2022-09-03T14:25:50;4.13;;;1.80;;
50249;SDS011;36133;42.522;27.456;2022-09-03T14:28:39;1.80;;;1.55;;
50249;SDS011;36133;42.522;27.456;2022-09-03T14:36:53;1.75;;;1.50;;
50249;SDS011;36133;42.522;27.456;2022-09-03T14:39:32;1.70;;;1.60;;
50249;SDS011;36133;42.522;27.456;2022-09-03T14:47:46;1.50;;;1.40;;
50249;SDS011;36133;42.522;27.456;2022-09-03T14:58:52;2.78;;;1.58;;
50249;SDS011;36133;42.522;27.456;2022-09-03T15:12:36;3.00;;;1.70;;
50249;SDS011;36133;42.522;27.456;2022-09-03T15:15:17;2.67;;;1.77;;
50249;SDS011;36133;42.522;27.456;2022-09-03T15:18:01;1.70;;;1.60;;
50249;SDS011;36133;42.522;27.456;2022-09-03T15:20:54;2.33;;;2.10;;
50249;SDS011;36133;42.522;27.456;2022-09-03T15:23:52;3.88;;;2.38;;
50249;SDS011;36133;42.522;27.456;2022-09-03T15:29:51;2.85;;;2.38;;
50249;SDS011;36133;42.522;27.456;2022-09-03T15:35:05;3.13;;;2.83;;
50249;SDS011;36133;42.522;27.456;2022-09-03T15:37:54;5.85;;;3.25;;
50249;SDS011;36133;42.522;27.456;2022-09-03T15:40:27;3.78;;;2.85;;
50249;SDS011;36133;42.522;27.456;2022-09-03T15:43:06;4.53;;;3.05;;
50249;SDS011;36133;42.522;27.456;2022-09-03T15:48:25;3.30;;;2.72;;
50249;SDS011;36133;42.522;27.456;2022-09-03T15:54:17;8.52;;;3.55;;
50249;SDS011;36133;42.522;27.456;2022-09-03T15:56:57;5.97;;;3.97;;
50249;SDS011;36133;42.522;27.456;2022-09-03T16:02:17;4.57;;;3.95;;
50249;SDS011;36133;42.522;27.456;2022-09-03T16:04:51;5.88;;;4.32;;
50249;SDS011;36133;42.522;27.456;2022-09-03T16:18:03;5.32;;;4.50;;
50249;SDS011;36133;42.522;27.456;2022-09-03T16:20:40;5.40;;;4.70;;
50249;SDS011;36133;42.522;27.456;2022-09-03T16:23:35;5.20;;;4.70;;
50249;SDS011;36133;42.522;27.456;2022-09-03T16:26:13;6.88;;;4.82;;
50249;SDS011;36133;42.522;27.456;2022-09-03T16:28:47;6.07;;;4.10;;
50249;SDS011;36133;42.522;27.456;2022-09-03T16:31:16;6.70;;;4.30;;
50249;SDS011;36133;42.522;27.456;2022-09-03T16:45:14;7.47;;;5.07;;
50249;SDS011;36133;42.522;27.456;2022-09-03T16:47:58;6.82;;;5.35;;
50249;SDS011;36133;42.522;27.456;2022-09-03T16:50:53;6.22;;;5.57;;
50249;SDS011;36133;42.522;27.456;2022-09-03T16:53:38;7.72;;;5.50;;
50249;SDS011;36133;42.522;27.456;2022-09-03T16:56:43;6.75;;;5.20;;
50249;SDS011;36133;42.522;27.456;2022-09-03T17:02:38;8.00;;;5.33;;
50249;SDS011;36133;42.522;27.456;2022-09-03T17:24:43;6.28;;;5.15;;
50249;SDS011;36133;42.522;27.456;2022-09-03T17:27:33;6.63;;;5.28;;
50249;SDS011;36133;42.522;27.456;2022-09-03T17:30:34;6.68;;;4.97;;
50249;SDS011;36133;42.522;27.456;2022-09-03T17:33:41;7.25;;;5.85;;
50249;SDS011;36133;42.522;27.456;2022-09-03T17:36:25;7.65;;;5.05;;
50249;SDS011;36133;42.522;27.456;2022-09-03T17:50:24;7.03;;;5.05;;
50249;SDS011;36133;42.522;27.456;2022-09-03T17:56:22;6.82;;;5.22;;
50249;SDS011;36133;42.522;27.456;2022-09-03T17:59:02;6.60;;;5.38;;
50249;SDS011;36133;42.522;27.456;2022-09-03T18:01:35;7.38;;;4.95;;
50249;SDS011;36133;42.522;27.456;2022-09-03T18:04:14;6.07;;;4.93;;
50249;SDS011;36133;42.522;27.456;2022-09-03T18:12:42;5.82;;;5.20;;
50249;SDS011;36133;42.522;27.456;2022-09-03T18:18:06;8.32;;;6.10;;
50249;SDS011;36133;42.522;27.456;2022-09-03T18:21:19;6.97;;;5.40;;
50249;SDS011;36133;42.522;27.456;2022-09-03T18:26:30;7.05;;;5.07;;
50249;SDS011;36133;42.522;27.456;2022-09-03T18:35:00;6.32;;;4.75;;
50249;SDS011;36133;42.522;27.456;2022-09-03T18:37:44;7.18;;;5.65;;
50249;SDS011;36133;42.522;27.456;2022-09-03T18:40:30;5.63;;;4.60;;
50249;SDS011;36133;42.522;27.456;2022-09-03T18:52:24;6.95;;;5.05;;
50249;SDS011;36133;42.522;27.456;2022-09-03T18:55:34;5.85;;;4.68;;
50249;SDS011;36133;42.522;27.456;2022-09-03T19:01:41;5.15;;;4.47;;
50249;SDS011;36133;42.522;27.456;2022-09-03T19:10:41;7.72;;;5.13;;
50249;SDS011;36133;42.522;27.456;2022-09-03T19:13:38;8.80;;;5.38;;
50249;SDS011;36133;42.522;27.456;2022-09-03T19:22:56;5.57;;;4.35;;
50249;SDS011;36133;42.522;27.456;2022-09-03T19:25:40;7.32;;;4.82;;
50249;SDS011;36133;42.522;27.456;2022-09-03T19:28:24;7.10;;;4.82;;
50249;SDS011;36133;42.522;27.456;2022-09-03T19:46:10;5.90;;;4.95;;
50249;SDS011;36133;42.522;27.456;2022-09-03T19:49:41;5.30;;;4.18;;
50249;SDS011;36133;42.522;27.456;2022-09-03T19:52:11;5.38;;;4.30;;
50249;SDS011;36133;42.522;27.456;2022-09-03T19:55:05;5.35;;;4.65;;
50249;SDS011;36133;42.522;27.456;2022-09-03T19:57:53;5.25;;;4.22;;
50249;SDS011;36133;42.522;27.456;2022-09-03T20:00:41;4.55;;;3.95;;
50249;SDS011;36133;42.522;27.456;2022-09-03T20:03:26;4.72;;;3.78;;
50249;SDS011;36133;42.522;27.456;2022-09-03T20:06:11;4.47;;;4.07;;
50249;SDS011;36133;42.522;27.456;2022-09-03T20:09:06;4.78;;;4.15;;
50249;SDS011;36133;42.522;27.456;2022-09-03T20:11:55;5.25;;;4.47;;
50249;SDS011;36133;42.522;27.456;2022-09-03T20:14:25;4.50;;;4.05;;
50249;SDS011;36133;42.522;27.456;2022-09-03T20:27:26;8.05;;;4.10;;
50249;SDS011;36133;42.522;27.456;2022-09-03T20:30:20;5.45;;;4.28;;
50249;SDS011;36133;42.522;27.456;2022-09-03T20:33:03;4.93;;;4.15;;
50249;SDS011;36133;42.522;27.456;2022-09-03T20:36:12;5.35;;;4.53;;
50249;SDS011;36133;42.522;27.456;2022-09-03T20:41:32;5.93;;;4.80;;
50249;SDS011;36133;42.522;27.456;2022-09-03T20:47:22;6.82;;;4.70;;
50249;SDS011;36133;42.522;27.456;2022-09-03T20:55:19;5.15;;;4.28;;
50249;SDS011;36133;42.522;27.456;2022-09-03T21:00:44;4.80;;;4.10;;
50249;SDS011;36133;42.522;27.456;2022-09-03T21:11:42;3.90;;;3.33;;
50249;SDS011;36133;42.522;27.456;2022-09-03T21:14:30;6.43;;;3.42;;
50249;SDS011;36133;42.522;27.456;2022-09-03T21:19:54;3.72;;;3.33;;
50249;SDS011;36133;42.522;27.456;2022-09-03T21:26:12;3.30;;;2.97;;
50249;SDS011;36133;42.522;27.456;2022-09-03T21:28:38;3.38;;;3.08;;
50249;SDS011;36133;42.522;27.456;2022-09-03T21:31:25;3.25;;;2.60;;
50249;SDS011;36133;42.522;27.456;2022-09-03T21:34:20;3.85;;;3.03;;
50249;SDS011;36133;42.522;27.456;2022-09-03T21:36:54;5.95;;;3.03;;
50249;SDS011;36133;42.522;27.456;2022-09-03T21:39:30;3.40;;;2.70;;
50249;SDS011;36133;42.522;27.456;2022-09-03T21:44:50;4.95;;;3.22;;
50249;SDS011;36133;42.522;27.456;2022-09-03T21:47:24;4.70;;;2.63;;